Time;durP1;ratioP1;P1;durP2;ratioP2;P2;SDS_P1;SDS_P2;PMS_P1;PMS_P2;Temp;Humidity;BMP_temperature;BMP_pressure;BME280_temperature;BME280_humidity;BME280_pressure;Samples;Min_cycle;Max_cycle;Signal;HPM_P1;HPM_P2
2022/05/17 00:00:51;;;;;;;13.80;6.22;;;;;;;;;;2131711;27;20047;-58
2022/05/17 00:01:52;;;;;;;15.82;6.18;;;;;;;;;;2131868;27;20483;-58
2022/05/17 00:02:53;;;;;;;14.88;6.50;;;;;;;;;;2131746;27;20511;-59
2022/05/17 00:03:54;;;;;;;11.50;5.75;;;;;;;;;;2131643;27;20047;-59
2022/05/17 00:04:55;;;;;;;11.07;4.75;;;;;;;;;;2131847;27;20099;-58
2022/05/17 00:05:56;;;;;;;11.82;6.05;;;;;;;;;;2131674;27;20103;-58
2022/05/17 00:06:57;;;;;;;14.50;6.53;;;;;;;;;;2131967;27;20040;-58
2022/05/17 00:07:58;;;;;;;14.43;5.37;;;;;;;;;;2131772;27;20129;-58
2022/05/17 00:08:59;;;;;;;10.13;5.18;;;;;;;;;;2131750;27;20362;-58
2022/05/17 00:10:01;;;;;;;13.85;6.57;;;;;;;;;;2131743;27;20131;-58
2022/05/17 00:11:02;;;;;;;15.82;5.28;;;;;;;;;;2131833;27;20094;-59
2022/05/17 00:12:05;;;;;;;12.98;5.97;;;;;;;;;;2131584;27;20043;-58
2022/05/17 00:13:06;;;;;;;12.50;4.90;;;;;;;;;;2131704;27;20509;-58
2022/05/17 00:14:07;;;;;;;9.98;4.28;;;;;;;;;;2131657;27;20052;-59
2022/05/17 00:15:09;;;;;;;12.15;4.57;;;;;;;;;;2131666;27;20163;-58
2022/05/17 00:16:11;;;;;;;12.95;5.65;;;;;;;;;;2131793;27;20089;-58
2022/05/17 00:17:12;;;;;;;16.08;5.55;;;;;;;;;;2131742;27;20043;-58
2022/05/17 00:18:14;;;;;;;11.30;5.18;;;;;;;;;;2131608;27;20110;-58
2022/05/17 00:19:16;;;;;;;13.75;6.10;;;;;;;;;;2131394;27;20135;-58
2022/05/17 00:20:17;;;;;;;9.43;4.18;;;;;;;;;;2131684;27;20045;-58
2022/05/17 00:21:18;;;;;;;15.57;5.95;;;;;;;;;;2131645;27;20095;-59
2022/05/17 00:22:20;;;;;;;11.25;5.07;;;;;;;;;;2131615;27;20450;-58
2022/05/17 00:23:21;;;;;;;10.38;4.88;;;;;;;;;;2131663;27;20190;-58
2022/05/17 00:24:24;;;;;;;12.23;5.80;;;;;;;;;;2131664;27;20051;-58
2022/05/17 00:25:25;;;;;;;13.15;5.13;;;;;;;;;;2131699;27;20049;-58
2022/05/17 00:26:26;;;;;;;14.63;5.53;;;;;;;;;;2131567;27;20121;-58
2022/05/17 00:27:28;;;;;;;11.38;5.45;;;;;;;;;;2131558;27;20046;-58
2022/05/17 00:28:29;;;;;;;11.73;5.22;;;;;;;;;;2131579;27;20049;-58
2022/05/17 00:29:30;;;;;;;12.18;5.35;;;;;;;;;;2131592;27;20137;-58
2022/05/17 00:30:32;;;;;;;11.50;5.03;;;;;;;;;;2131524;27;20039;-58
2022/05/17 00:31:33;;;;;;;19.17;6.35;;;;;;;;;;2131663;27;20094;-58
2022/05/17 00:32:34;;;;;;;10.98;5.47;;;;;;;;;;2131575;27;20053;-59
2022/05/17 00:33:36;;;;;;;10.90;4.78;;;;;;;;;;2131456;27;20129;-58
2022/05/17 00:34:37;;;;;;;10.70;5.15;;;;;;;;;;2131573;27;20051;-59
2022/05/17 00:35:38;;;;;;;11.00;5.00;;;;;;;;;;2131649;27;20042;-58
2022/05/17 00:36:40;;;;;;;11.18;5.82;;;;;;;;;;2131683;27;20415;-58
2022/05/17 00:37:41;;;;;;;12.07;4.47;;;;;;;;;;2131307;27;20053;-58
2022/05/17 00:38:42;;;;;;;12.50;4.88;;;;;;;;;;2131399;27;20091;-58
2022/05/17 00:39:43;;;;;;;12.68;5.38;;;;;;;;;;2131503;27;20045;-58
2022/05/17 00:40:44;;;;;;;12.20;4.18;;;;;;;;;;2131436;27;20042;-58
2022/05/17 00:41:45;;;;;;;8.18;4.15;;;;;;;;;;2131394;27;20152;-58
2022/05/17 00:42:47;;;;;;;9.43;4.30;;;;;;;;;;2131523;27;20092;-58
2022/05/17 00:45:09;;;;;;;10.80;4.47;;;;;;;;;;2131435;27;20125;-58
2022/05/17 00:46:10;;;;;;;;;;;;;;;;;;2132021;27;20052;-58
2022/05/17 00:47:14;;;;;;;11.02;3.60;;;;;;;;;;2131638;27;19919;-58
2022/05/17 00:48:15;;;;;;;10.80;4.50;;;;;;;;;;2131493;27;20130;-58
2022/05/17 00:49:20;;;;;;;7.70;4.05;;;;;;;;;;2131534;27;20125;-58
2022/05/17 00:50:23;;;;;;;8.48;3.88;;;;;;;;;;2131551;27;20440;-58
2022/05/17 00:51:27;;;;;;;8.18;4.00;;;;;;;;;;2131534;27;20079;-59
2022/05/17 00:52:29;;;;;;;7.82;3.88;;;;;;;;;;2131674;27;20102;-58
2022/05/17 00:53:33;;;;;;;8.73;4.40;;;;;;;;;;2131376;27;20126;-59
2022/05/17 00:54:35;;;;;;;8.73;4.68;;;;;;;;;;2131508;27;20227;-58
2022/05/17 00:55:38;;;;;;;10.23;4.68;;;;;;;;;;2131452;27;20039;-58
2022/05/17 00:56:41;;;;;;;9.27;3.80;;;;;;;;;;2131493;27;20125;-58
2022/05/17 00:57:44;;;;;;;10.07;4.85;;;;;;;;;;2131443;27;20071;-58
2022/05/17 00:58:48;;;;;;;8.38;4.00;;;;;;;;;;2131422;27;20130;-58
2022/05/17 00:59:50;;;;;;;9.35;3.85;;;;;;;;;;2131320;27;20142;-58
2022/05/17 01:00:53;;;;;;;11.35;4.30;;;;;;;;;;2131425;27;20129;-58
2022/05/17 01:01:55;;;;;;;7.40;3.83;;;;;;;;;;2131402;27;20121;-59
2022/05/17 01:02:58;;;;;;;9.65;4.43;;;;;;;;;;2131367;27;20590;-58
2022/05/17 01:04:03;;;;;;;11.02;4.45;;;;;;;;;;2131335;27;20507;-58
2022/05/17 01:05:05;;;;;;;9.82;4.47;;;;;;;;;;2131538;27;20046;-58
2022/05/17 01:06:06;;;;;;;8.55;3.95;;;;;;;;;;2131230;27;20053;-58
2022/05/17 01:07:09;;;;;;;10.18;4.45;;;;;;;;;;2131354;27;20594;-58
2022/05/17 01:08:11;;;;;;;12.07;4.30;;;;;;;;;;2131369;27;20485;-58
2022/05/17 01:09:13;;;;;;;7.93;4.03;;;;;;;;;;2131193;27;20098;-58
2022/05/17 01:10:14;;;;;;;7.93;4.20;;;;;;;;;;2131374;27;20070;-46
2022/05/17 01:11:15;;;;;;;8.10;3.88;;;;;;;;;;2131258;27;20502;-46
2022/05/17 01:12:17;;;;;;;12.00;3.87;;;;;;;;;;2131448;27;20070;-47
2022/05/17 01:15:57;;;;;;;5.85;3.95;;;;;;;;;;2131269;27;20050;-47
2022/05/17 01:16:58;;;;;;;7.95;3.78;;;;;;;;;;2131446;27;20054;-46
2022/05/17 01:17:59;;;;;;;10.57;5.05;;;;;;;;;;2131220;27;20034;-46
2022/05/17 01:19:01;;;;;;;7.68;3.67;;;;;;;;;;2131176;27;20061;-47
2022/05/17 01:20:03;;;;;;;9.77;4.68;;;;;;;;;;2131169;27;20122;-47
2022/05/17 01:21:05;;;;;;;8.93;4.13;;;;;;;;;;2131296;27;20047;-48
2022/05/17 01:22:06;;;;;;;7.07;4.20;;;;;;;;;;2131297;27;20049;-46
2022/05/17 01:23:07;;;;;;;8.70;3.60;;;;;;;;;;2131545;27;20099;-46
2022/05/17 01:24:08;;;;;;;10.60;4.45;;;;;;;;;;2131276;27;20126;-46
2022/05/17 01:25:10;;;;;;;8.13;3.70;;;;;;;;;;2131111;27;20515;-47
2022/05/17 01:26:13;;;;;;;6.30;3.40;;;;;;;;;;2131329;27;20126;-47
2022/05/17 01:27:18;;;;;;;7.57;4.00;;;;;;;;;;2131141;27;20045;-47
2022/05/17 01:28:20;;;;;;;10.60;3.80;;;;;;;;;;2131471;27;20075;-48
2022/05/17 01:29:21;;;;;;;12.63;4.10;;;;;;;;;;2131083;27;20126;-46
2022/05/17 01:30:24;;;;;;;6.63;3.53;;;;;;;;;;2131136;27;20424;-47
2022/05/17 01:31:26;;;;;;;10.30;4.25;;;;;;;;;;2131063;27;20543;-46
2022/05/17 01:32:27;;;;;;;8.02;4.00;;;;;;;;;;2131260;27;20070;-47
2022/05/17 01:33:28;;;;;;;10.05;3.17;;;;;;;;;;2131189;27;20211;-47
2022/05/17 01:34:29;;;;;;;11.17;3.23;;;;;;;;;;2131019;27;20062;-46
2022/05/17 01:35:30;;;;;;;6.88;3.85;;;;;;;;;;2131149;27;20061;-46
2022/05/17 01:36:32;;;;;;;6.88;3.08;;;;;;;;;;2131238;27;20074;-47
2022/05/17 01:37:33;;;;;;;9.50;3.92;;;;;;;;;;2131317;27;20046;-46
2022/05/17 01:38:35;;;;;;;5.68;3.03;;;;;;;;;;2131053;27;20480;-46
2022/05/17 01:39:37;;;;;;;10.00;3.55;;;;;;;;;;2131249;27;20582;-46
2022/05/17 01:40:38;;;;;;;8.75;3.97;;;;;;;;;;2131056;27;20501;-46
2022/05/17 01:41:39;;;;;;;8.45;3.25;;;;;;;;;;2131265;27;20046;-47
2022/05/17 01:42:40;;;;;;;8.90;2.97;;;;;;;;;;2131106;27;20038;-47
2022/05/17 01:43:41;;;;;;;11.32;3.88;;;;;;;;;;2131166;27;20050;-47
2022/05/17 01:44:43;;;;;;;5.43;2.97;;;;;;;;;;2131155;27;20095;-47
2022/05/17 01:45:44;;;;;;;8.10;3.75;;;;;;;;;;2131157;27;20129;-46
2022/05/17 01:46:45;;;;;;;10.40;3.17;;;;;;;;;;2131202;27;20078;-47
2022/05/17 01:47:47;;;;;;;8.82;3.55;;;;;;;;;;2131121;27;20493;-47
2022/05/17 01:48:48;;;;;;;5.72;2.83;;;;;;;;;;2131071;27;20070;-46
2022/05/17 01:49:49;;;;;;;5.50;3.10;;;;;;;;;;2131046;27;20479;-47
2022/05/17 01:50:50;;;;;;;7.00;3.20;;;;;;;;;;2131279;27;20066;-47
2022/05/17 01:51:52;;;;;;;7.70;2.97;;;;;;;;;;2131031;27;20436;-47
2022/05/17 01:52:53;;;;;;;8.38;3.25;;;;;;;;;;2131094;27;20391;-47
2022/05/17 01:53:54;;;;;;;6.78;2.75;;;;;;;;;;2130923;27;20054;-46
2022/05/17 01:54:55;;;;;;;10.40;2.72;;;;;;;;;;2131162;27;20388;-46
2022/05/17 01:55:56;;;;;;;9.50;3.72;;;;;;;;;;2131032;27;20514;-46
2022/05/17 01:56:57;;;;;;;5.53;2.80;;;;;;;;;;2130583;27;20053;-47
2022/05/17 01:57:58;;;;;;;8.00;3.33;;;;;;;;;;2131236;27;20038;-47
2022/05/17 01:58:59;;;;;;;6.17;2.70;;;;;;;;;;2131073;27;20070;-46
2022/05/17 02:00:00;;;;;;;7.28;2.30;;;;;;;;;;2131120;27;20066;-46
2022/05/17 02:01:01;;;;;;;5.28;3.13;;;;;;;;;;2130877;27;20655;-47
2022/05/17 02:02:03;;;;;;;6.03;2.90;;;;;;;;;;2131125;27;20167;-47
2022/05/17 02:03:04;;;;;;;5.13;2.00;;;;;;;;;;2130967;27;20039;-47
2022/05/17 02:04:05;;;;;;;5.85;2.15;;;;;;;;;;2130899;27;20155;-48
2022/05/17 02:05:07;;;;;;;6.73;2.27;;;;;;;;;;2131021;27;20039;-46
2022/05/17 02:06:08;;;;;;;;;;;;;;;;;;2131491;27;20039;-46
2022/05/17 02:07:10;;;;;;;4.18;2.50;;;;;;;;;;2130942;27;19974;-46
2022/05/17 02:08:11;;;;;;;7.18;2.22;;;;;;;;;;2131018;27;20563;-46
2022/05/17 02:09:12;;;;;;;5.22;1.67;;;;;;;;;;2130926;27;20078;-47
2022/05/17 02:10:13;;;;;;;5.10;2.38;;;;;;;;;;2131093;27;20043;-47
2022/05/17 02:11:14;;;;;;;3.90;1.58;;;;;;;;;;2131000;27;20039;-47
2022/05/17 02:12:15;;;;;;;3.90;2.45;;;;;;;;;;2130912;27;20133;-47
2022/05/17 02:13:17;;;;;;;4.65;2.10;;;;;;;;;;2131163;27;20479;-58
2022/05/17 02:14:18;;;;;;;3.80;1.65;;;;;;;;;;2130845;27;20407;-59
2022/05/17 02:15:19;;;;;;;2.83;1.53;;;;;;;;;;2131042;27;20043;-59
2022/05/17 02:16:21;;;;;;;3.65;1.85;;;;;;;;;;2130859;27;20047;-58
2022/05/17 02:17:22;;;;;;;3.37;1.70;;;;;;;;;;2131046;27;20053;-59
2022/05/17 02:18:23;;;;;;;3.95;2.22;;;;;;;;;;2130393;27;20900;-58
2022/05/17 02:19:25;;;;;;;4.05;1.73;;;;;;;;;;2122297;27;20076;-58
2022/05/17 02:20:26;;;;;;;2.90;1.38;;;;;;;;;;2122358;28;20047;-58
2022/05/17 02:21:27;;;;;;;3.88;1.52;;;;;;;;;;2122383;28;20047;-59
2022/05/17 02:22:28;;;;;;;3.15;1.42;;;;;;;;;;2122366;28;20403;-58
2022/05/17 02:23:30;;;;;;;3.58;1.52;;;;;;;;;;2122370;28;20156;-59
2022/05/17 02:24:31;;;;;;;2.88;1.65;;;;;;;;;;2122253;27;20139;-58
2022/05/17 02:25:32;;;;;;;3.20;1.43;;;;;;;;;;2122560;28;20078;-58
2022/05/17 02:26:33;;;;;;;2.90;1.70;;;;;;;;;;2122361;28;20383;-59
2022/05/17 02:27:35;;;;;;;4.10;2.22;;;;;;;;;;2122316;28;20130;-58
2022/05/17 02:28:36;;;;;;;2.70;1.50;;;;;;;;;;2122265;27;20043;-58
2022/05/17 02:29:37;;;;;;;2.80;1.30;;;;;;;;;;2122285;28;20124;-59
2022/05/17 02:30:39;;;;;;;4.45;1.60;;;;;;;;;;2128236;27;20039;-59
2022/05/17 02:31:40;;;;;;;6.53;1.42;;;;;;;;;;2130916;27;20129;-58
2022/05/17 02:32:41;;;;;;;3.33;1.80;;;;;;;;;;2131190;27;20468;-46
2022/05/17 02:33:43;;;;;;;2.60;1.33;;;;;;;;;;2130877;27;20062;-47
2022/05/17 02:34:44;;;;;;;2.50;1.20;;;;;;;;;;2130758;27;20039;-47
2022/05/17 02:35:45;;;;;;;3.70;1.50;;;;;;;;;;2130940;27;20099;-47
2022/05/17 02:36:46;;;;;;;3.22;1.45;;;;;;;;;;2130834;27;20123;-47
2022/05/17 02:37:48;;;;;;;4.72;1.50;;;;;;;;;;2130974;27;20047;-47
2022/05/17 02:38:49;;;;;;;3.22;1.65;;;;;;;;;;2130948;27;20475;-58
2022/05/17 02:39:50;;;;;;;2.67;1.33;;;;;;;;;;2130961;27;20050;-59
2022/05/17 02:40:51;;;;;;;3.10;1.17;;;;;;;;;;2130795;27;20294;-59
2022/05/17 02:41:52;;;;;;;3.42;1.50;;;;;;;;;;2130818;27;20411;-58
2022/05/17 02:42:53;;;;;;;4.25;1.75;;;;;;;;;;2130737;27;20490;-59
2022/05/17 02:43:54;;;;;;;2.17;1.20;;;;;;;;;;2130953;27;20118;-58
2022/05/17 02:44:55;;;;;;;2.83;1.40;;;;;;;;;;2130875;27;20118;-58
2022/05/17 02:45:56;;;;;;;2.40;1.17;;;;;;;;;;2130798;27;20491;-58
2022/05/17 02:46:58;;;;;;;3.15;1.20;;;;;;;;;;2130809;27;20114;-59
2022/05/17 02:47:59;;;;;;;2.47;1.37;;;;;;;;;;2130771;27;20117;-59
2022/05/17 02:49:01;;;;;;;1.80;1.10;;;;;;;;;;2130689;27;20777;-58
2022/05/17 02:50:03;;;;;;;4.57;1.60;;;;;;;;;;2130729;27;20039;-58
2022/05/17 02:51:08;;;;;;;5.50;1.98;;;;;;;;;;2130692;27;20476;-58
2022/05/17 02:52:09;;;;;;;3.47;1.30;;;;;;;;;;2130790;27;20087;-58
2022/05/17 02:53:10;;;;;;;2.97;1.30;;;;;;;;;;2130738;27;20050;-58
2022/05/17 02:54:11;;;;;;;2.53;1.10;;;;;;;;;;2130598;27;20061;-58
2022/05/17 02:55:12;;;;;;;2.15;1.15;;;;;;;;;;2130681;27;20134;-58
2022/05/17 02:56:14;;;;;;;3.00;1.30;;;;;;;;;;2130881;27;20072;-58
2022/05/17 02:57:15;;;;;;;2.67;1.40;;;;;;;;;;2130622;27;20043;-58
2022/05/17 02:58:16;;;;;;;3.67;1.38;;;;;;;;;;2130892;27;20081;-58
2022/05/17 02:59:19;;;;;;;2.75;1.30;;;;;;;;;;2130564;27;20199;-58
2022/05/17 03:00:20;;;;;;;1.80;1.20;;;;;;;;;;2130825;27;20049;-58
2022/05/17 03:01:21;;;;;;;1.93;1.13;;;;;;;;;;2130698;27;20081;-58
2022/05/17 03:02:22;;;;;;;3.85;1.88;;;;;;;;;;2130886;27;20314;-58
2022/05/17 03:03:24;;;;;;;3.50;1.63;;;;;;;;;;2130681;27;20054;-58
2022/05/17 03:04:29;;;;;;;3.65;1.42;;;;;;;;;;2130651;27;20135;-58
2022/05/17 03:05:30;;;;;;;2.20;1.10;;;;;;;;;;2131064;27;20054;-58
2022/05/17 03:06:31;;;;;;;3.20;1.38;;;;;;;;;;2130620;27;20492;-58
2022/05/17 03:07:32;;;;;;;3.08;1.35;;;;;;;;;;2130811;27;20065;-58
2022/05/17 03:08:34;;;;;;;2.47;1.33;;;;;;;;;;2130528;27;20421;-58
2022/05/17 03:09:35;;;;;;;4.57;1.63;;;;;;;;;;2131804;27;20129;-58
2022/05/17 03:10:36;;;;;;;1.88;1.17;;;;;;;;;;2132168;27;20122;-58
2022/05/17 03:11:41;;;;;;;2.45;1.13;;;;;;;;;;2132159;27;20422;-58
2022/05/17 03:12:43;;;;;;;2.47;1.30;;;;;;;;;;2125851;27;20277;-58
2022/05/17 03:13:44;;;;;;;5.75;1.30;;;;;;;;;;2123460;27;20583;-58
2022/05/17 03:14:45;;;;;;;3.15;1.33;;;;;;;;;;2123582;28;20054;-59
2022/05/17 03:15:49;;;;;;;6.22;1.38;;;;;;;;;;2123671;28;20130;-58
2022/05/17 03:16:50;;;;;;;2.92;1.40;;;;;;;;;;2123440;28;20055;-58
2022/05/17 03:17:51;;;;;;;1.75;1.10;;;;;;;;;;2123641;28;20043;-58
2022/05/17 03:18:52;;;;;;;2.43;1.23;;;;;;;;;;2123179;27;20075;-57
2022/05/17 03:19:53;;;;;;;2.15;1.42;;;;;;;;;;2123627;28;20039;-58
2022/05/17 03:20:55;;;;;;;3.60;1.23;;;;;;;;;;2123534;28;20081;-58
2022/05/17 03:21:56;;;;;;;3.08;1.80;;;;;;;;;;2123422;28;20118;-58
2022/05/17 03:22:57;;;;;;;2.20;1.50;;;;;;;;;;2123429;28;20047;-58
2022/05/17 03:23:59;;;;;;;5.10;1.63;;;;;;;;;;2123445;27;20049;-58
2022/05/17 03:25:00;;;;;;;3.42;1.60;;;;;;;;;;2123425;28;20464;-58
2022/05/17 03:26:21;;;;;;;5.10;1.45;;;;;;;;;;2124727;27;20044;-58
2022/05/17 03:27:23;;;;;;;2.85;1.80;;;;;;;;;;2132165;27;20084;-58
2022/05/17 03:28:24;;;;;;;4.45;1.73;;;;;;;;;;2132022;27;20046;-58
2022/05/17 03:29:26;;;;;;;4.17;1.90;;;;;;;;;;2131872;27;20103;-58
2022/05/17 03:30:27;;;;;;;3.75;1.63;;;;;;;;;;2131954;27;20387;-58
2022/05/17 03:31:28;;;;;;;3.83;1.65;;;;;;;;;;2132028;27;20046;-58
2022/05/17 03:32:29;;;;;;;3.22;1.70;;;;;;;;;;2132104;27;20046;-58
2022/05/17 03:33:31;;;;;;;3.83;1.35;;;;;;;;;;2132049;27;20114;-58
2022/05/17 03:34:31;;;;;;;2.30;1.00;;;;;;;;;;2132143;27;20063;-58
2022/05/17 03:35:33;;;;;;;3.15;1.08;;;;;;;;;;2131958;27;20042;-58
2022/05/17 03:36:34;;;;;;;3.47;1.40;;;;;;;;;;2131925;27;20574;-58
2022/05/17 03:37:36;;;;;;;2.30;1.20;;;;;;;;;;2131879;27;20483;-58
2022/05/17 03:38:37;;;;;;;2.30;1.20;;;;;;;;;;2131984;27;20059;-58
2022/05/17 03:39:39;;;;;;;5.03;1.20;;;;;;;;;;2131898;27;20122;-59
2022/05/17 03:40:41;;;;;;;2.28;1.00;;;;;;;;;;2131997;27;20070;-58
2022/05/17 03:41:42;;;;;;;2.28;1.17;;;;;;;;;;2132047;27;20053;-58
2022/05/17 03:42:43;;;;;;;2.92;1.25;;;;;;;;;;2132234;27;20057;-58
2022/05/17 03:43:44;;;;;;;2.95;1.40;;;;;;;;;;2131908;27;20074;-58
2022/05/17 03:44:45;;;;;;;5.03;1.10;;;;;;;;;;2131881;27;20130;-58
2022/05/17 03:45:47;;;;;;;4.55;1.23;;;;;;;;;;2131907;27;20050;-58
2022/05/17 03:46:48;;;;;;;1.85;1.05;;;;;;;;;;2131870;27;20043;-58
2022/05/17 03:47:49;;;;;;;2.50;1.23;;;;;;;;;;2131959;27;20050;-58
2022/05/17 03:48:50;;;;;;;3.90;1.15;;;;;;;;;;2131790;27;20133;-58
2022/05/17 03:49:51;;;;;;;2.93;1.40;;;;;;;;;;2131891;27;20048;-58
2022/05/17 03:50:52;;;;;;;1.77;0.98;;;;;;;;;;2131843;27;20485;-58
2022/05/17 03:51:53;;;;;;;2.73;1.17;;;;;;;;;;2131919;27;20047;-58
2022/05/17 03:52:55;;;;;;;2.10;1.15;;;;;;;;;;2131808;27;20048;-58
2022/05/17 03:53:56;;;;;;;1.77;0.80;;;;;;;;;;2131690;27;20480;-58
2022/05/17 03:54:58;;;;;;;1.27;1.00;;;;;;;;;;2131871;27;20127;-58
2022/05/17 03:55:59;;;;;;;1.23;0.82;;;;;;;;;;2131894;27;20095;-58
2022/05/17 03:57:01;;;;;;;2.07;0.90;;;;;;;;;;2132178;27;20072;-46
2022/05/17 03:58:02;;;;;;;1.73;1.08;;;;;;;;;;2131769;27;20129;-46
2022/05/17 03:59:03;;;;;;;2.03;1.10;;;;;;;;;;2131830;27;20043;-47
2022/05/17 04:00:06;;;;;;;4.18;1.20;;;;;;;;;;2131763;27;20043;-46
2022/05/17 04:01:08;;;;;;;2.67;1.13;;;;;;;;;;2131754;27;20167;-47
2022/05/17 04:02:09;;;;;;;2.42;1.13;;;;;;;;;;2132044;27;20043;-46
2022/05/17 04:03:10;;;;;;;3.50;1.15;;;;;;;;;;2131805;27;20142;-46
2022/05/17 04:04:11;;;;;;;2.55;1.05;;;;;;;;;;2131799;27;20043;-46
2022/05/17 04:05:13;;;;;;;1.40;0.93;;;;;;;;;;2131900;27;20051;-47
2022/05/17 04:06:14;;;;;;;1.95;0.90;;;;;;;;;;2131764;27;20051;-46
2022/05/17 04:07:15;;;;;;;3.67;0.90;;;;;;;;;;2131815;27;20533;-46
2022/05/17 04:08:16;;;;;;;4.10;1.00;;;;;;;;;;2131578;27;20049;-47
2022/05/17 04:09:17;;;;;;;1.80;1.13;;;;;;;;;;2123057;27;20039;-46
2022/05/17 04:10:18;;;;;;;2.55;1.10;;;;;;;;;;2123336;28;20038;-47
2022/05/17 04:11:20;;;;;;;1.35;1.05;;;;;;;;;;2123183;28;20082;-46
2022/05/17 04:12:20;;;;;;;1.80;1.13;;;;;;;;;;2123259;28;20086;-47
2022/05/17 04:13:22;;;;;;;2.08;1.20;;;;;;;;;;2123218;28;20047;-47
2022/05/17 04:14:23;;;;;;;4.13;1.15;;;;;;;;;;2123077;27;20504;-46
2022/05/17 04:15:24;;;;;;;2.38;1.20;;;;;;;;;;2123179;28;20043;-46
2022/05/17 04:16:29;;;;;;;1.92;1.05;;;;;;;;;;2123379;28;20077;-46
2022/05/17 04:17:30;;;;;;;1.98;1.15;;;;;;;;;;2123063;28;20496;-48
2022/05/17 04:18:31;;;;;;;2.60;1.00;;;;;;;;;;2123007;28;20043;-46
2022/05/17 04:19:32;;;;;;;3.43;1.00;;;;;;;;;;2122959;27;20487;-46
2022/05/17 04:20:33;;;;;;;2.72;0.90;;;;;;;;;;2122710;28;20053;-46
2022/05/17 04:21:35;;;;;;;1.58;0.98;;;;;;;;;;2122987;28;20108;-47
2022/05/17 04:22:35;;;;;;;2.40;0.93;;;;;;;;;;2124335;27;20126;-48
2022/05/17 04:23:37;;;;;;;2.43;1.10;;;;;;;;;;2131652;27;20050;-48
2022/05/17 04:24:41;;;;;;;4.15;0.80;;;;;;;;;;2131640;27;20053;-47
2022/05/17 04:25:43;;;;;;;3.15;0.93;;;;;;;;;;2131695;27;20130;-47
2022/05/17 04:26:44;;;;;;;2.30;1.00;;;;;;;;;;2131636;27;20130;-47
2022/05/17 04:27:46;;;;;;;2.17;1.03;;;;;;;;;;2131767;27;20437;-48
2022/05/17 04:28:47;;;;;;;;;;;;;;;;;;2132101;27;20043;-49
2022/05/17 04:29:48;;;;;;;3.38;1.40;;;;;;;;;;2131567;27;20017;-47
2022/05/17 04:30:49;;;;;;;2.95;1.40;;;;;;;;;;2131692;27;20125;-48
2022/05/17 04:31:50;;;;;;;3.00;1.02;;;;;;;;;;2131546;27;20051;-47
2022/05/17 04:32:52;;;;;;;1.98;0.93;;;;;;;;;;2131775;27;20043;-46
2022/05/17 04:33:53;;;;;;;2.38;1.38;;;;;;;;;;2131526;27;20564;-47
2022/05/17 04:34:54;;;;;;;9.90;1.80;;;;;;;;;;2131687;27;20046;-46
2022/05/17 04:35:55;;;;;;;3.97;1.13;;;;;;;;;;2131695;27;20052;-47
2022/05/17 04:36:57;;;;;;;2.92;1.02;;;;;;;;;;2131534;27;20620;-47
2022/05/17 04:37:58;;;;;;;2.08;0.80;;;;;;;;;;2131543;27;20514;-46
2022/05/17 04:38:59;;;;;;;1.80;1.27;;;;;;;;;;2131537;27;20051;-47
2022/05/17 04:40:00;;;;;;;2.78;1.15;;;;;;;;;;2131527;27;20122;-47
2022/05/17 04:41:02;;;;;;;1.50;0.93;;;;;;;;;;2131476;27;20042;-46
2022/05/17 04:42:04;;;;;;;2.33;1.00;;;;;;;;;;2131534;27;20103;-46
2022/05/17 04:43:05;;;;;;;2.65;1.35;;;;;;;;;;2131412;27;20121;-46
2022/05/17 04:44:06;;;;;;;1.75;1.20;;;;;;;;;;2131597;27;20042;-46
2022/05/17 04:45:10;;;;;;;2.60;1.00;;;;;;;;;;2131413;27;20385;-46
2022/05/17 04:46:11;;;;;;;2.08;1.17;;;;;;;;;;2131488;27;20483;-48
2022/05/17 04:47:12;;;;;;;5.40;1.20;;;;;;;;;;2131520;27;20047;-47
2022/05/17 04:48:13;;;;;;;3.20;0.80;;;;;;;;;;2131585;27;20367;-46
2022/05/17 04:49:14;;;;;;;1.77;1.10;;;;;;;;;;2131449;27;20088;-46
2022/05/17 04:50:17;;;;;;;1.25;1.00;;;;;;;;;;2131425;27;20547;-47
2022/05/17 04:51:17;;;;;;;1.80;0.88;;;;;;;;;;2131489;27;20046;-46
2022/05/17 04:52:19;;;;;;;1.30;0.73;;;;;;;;;;2131487;27;20539;-47
2022/05/17 04:53:20;;;;;;;1.95;0.70;;;;;;;;;;2131486;27;20551;-47
2022/05/17 04:54:21;;;;;;;2.45;1.13;;;;;;;;;;2131306;27;20549;-47
2022/05/17 04:55:22;;;;;;;2.00;1.10;;;;;;;;;;2131531;27;20046;-46
2022/05/17 04:56:25;;;;;;;;;;;;;;;;;;2131812;27;20389;-47
2022/05/17 04:57:27;;;;;;;3.33;1.15;;;;;;;;;;2131493;27;20006;-46
2022/05/17 04:58:28;;;;;;;1.58;0.60;;;;;;;;;;2131415;27;20038;-46
2022/05/17 04:59:29;;;;;;;1.55;0.70;;;;;;;;;;2131330;27;20547;-47
2022/05/17 05:00:30;;;;;;;2.00;0.90;;;;;;;;;;2131383;27;20046;-47
2022/05/17 05:01:31;;;;;;;0.90;0.55;;;;;;;;;;2131614;27;20047;-47
2022/05/17 05:02:32;;;;;;;1.42;0.77;;;;;;;;;;2131649;27;20052;-58
2022/05/17 05:03:34;;;;;;;1.45;0.85;;;;;;;;;;2131383;27;20094;-58
2022/05/17 05:04:35;;;;;;;1.35;0.90;;;;;;;;;;2130603;27;20074;-59
2022/05/17 05:05:36;;;;;;;2.33;1.10;;;;;;;;;;2122826;28;20526;-59
2022/05/17 05:06:37;;;;;;;3.28;1.05;;;;;;;;;;2122887;28;20047;-58
2022/05/17 05:07:38;;;;;;;2.42;0.88;;;;;;;;;;2122811;28;20040;-59
2022/05/17 05:08:39;;;;;;;2.60;0.93;;;;;;;;;;2122834;27;20134;-59
2022/05/17 05:09:40;;;;;;;2.38;1.10;;;;;;;;;;2122793;28;20043;-59
2022/05/17 05:10:42;;;;;;;1.65;0.93;;;;;;;;;;2122954;28;20134;-59
2022/05/17 05:11:43;;;;;;;2.92;1.00;;;;;;;;;;2122856;28;20141;-59
2022/05/17 05:12:45;;;;;;;1.83;0.80;;;;;;;;;;2122759;28;20434;-59
2022/05/17 05:13:45;;;;;;;;;;;;;;;;;;2123137;27;20066;-59
2022/05/17 05:14:47;;;;;;;2.83;0.73;;;;;;;;;;2123018;28;20364;-59
2022/05/17 05:15:48;;;;;;;1.55;0.98;;;;;;;;;;2122875;28;20047;-59
2022/05/17 05:16:49;;;;;;;2.87;1.00;;;;;;;;;;2122727;28;20091;-59
2022/05/17 05:17:50;;;;;;;1.63;0.90;;;;;;;;;;2123074;28;20283;-59
2022/05/17 05:18:51;;;;;;;1.97;1.00;;;;;;;;;;2123982;27;20500;-59
2022/05/17 05:19:52;;;;;;;1.10;0.80;;;;;;;;;;2131287;27;20443;-59
2022/05/17 05:21:02;;;;;;;4.00;1.10;;;;;;;;;;2131266;27;20046;-59
2022/05/17 05:22:03;;;;;;;3.38;0.80;;;;;;;;;;2131236;27;20054;-59
2022/05/17 05:23:04;;;;;;;3.63;1.15;;;;;;;;;;2131204;27;20049;-59
2022/05/17 05:24:07;;;;;;;3.08;1.33;;;;;;;;;;2131395;27;20148;-46
2022/05/17 05:25:08;;;;;;;1.30;0.90;;;;;;;;;;2131268;27;20144;-46
2022/05/17 05:26:10;;;;;;;2.65;1.38;;;;;;;;;;2131220;27;20038;-47
2022/05/17 05:27:11;;;;;;;;;;;;;;;;;;2131710;27;20130;-47
2022/05/17 05:28:12;;;;;;;2.15;0.90;;;;;;;;;;2131177;27;20458;-48
2022/05/17 05:29:14;;;;;;;3.13;0.70;;;;;;;;;;2131175;27;20562;-47
2022/05/17 05:30:16;;;;;;;2.10;0.70;;;;;;;;;;2131167;27;20077;-48
2022/05/17 05:31:17;;;;;;;;;;;;;;;;;;2131531;27;20238;-46
2022/05/17 05:32:18;;;;;;;1.42;0.88;;;;;;;;;;2130470;27;19926;-46
2022/05/17 05:33:19;;;;;;;2.77;0.80;;;;;;;;;;2131589;27;20054;-47
2022/05/17 05:34:21;;;;;;;1.90;1.05;;;;;;;;;;2131143;27;20058;-46
2022/05/17 05:35:24;;;;;;;1.95;1.13;;;;;;;;;;2131382;27;20053;-47
2022/05/17 05:36:25;;;;;;;1.40;0.80;;;;;;;;;;2131166;27;20050;-46
2022/05/17 05:37:26;;;;;;;2.73;1.20;;;;;;;;;;2131188;27;20498;-46
2022/05/17 05:38:27;;;;;;;2.72;1.13;;;;;;;;;;2131239;27;20283;-49
2022/05/17 05:39:29;;;;;;;2.33;1.23;;;;;;;;;;2130971;27;20410;-46
2022/05/17 05:40:30;;;;;;;1.80;0.90;;;;;;;;;;2131131;27;20684;-46
2022/05/17 05:41:31;;;;;;;3.42;0.93;;;;;;;;;;2131209;27;20448;-46
2022/05/17 05:42:32;;;;;;;1.70;0.70;;;;;;;;;;2131058;27;20047;-47
2022/05/17 05:43:34;;;;;;;2.30;0.85;;;;;;;;;;2130970;27;20051;-47
2022/05/17 05:44:35;;;;;;;2.80;1.30;;;;;;;;;;2131084;27;20141;-46
2022/05/17 05:45:38;;;;;;;1.50;0.90;;;;;;;;;;2131138;27;20047;-46
2022/05/17 05:46:39;;;;;;;1.53;0.83;;;;;;;;;;2131119;27;20548;-47
2022/05/17 05:47:41;;;;;;;1.92;0.80;;;;;;;;;;2131036;27;20136;-47
2022/05/17 05:48:42;;;;;;;5.03;1.25;;;;;;;;;;2131114;27;20050;-47
2022/05/17 05:49:44;;;;;;;1.20;0.90;;;;;;;;;;2131345;27;20065;-47
2022/05/17 05:50:51;;;;;;;1.30;0.90;;;;;;;;;;2131273;27;20047;-47
2022/05/17 05:51:52;;;;;;;2.90;0.90;;;;;;;;;;2131258;27;20567;-47
2022/05/17 05:52:58;;;;;;;2.30;0.70;;;;;;;;;;2131274;27;20047;-49
2022/05/17 05:53:59;;;;;;;3.38;0.85;;;;;;;;;;2130983;27;20440;-46
2022/05/17 05:55:00;;;;;;;1.97;0.80;;;;;;;;;;2131044;27;20062;-47
2022/05/17 05:56:02;;;;;;;1.17;0.70;;;;;;;;;;2131087;27;20460;-47
2022/05/17 05:57:03;;;;;;;1.92;0.90;;;;;;;;;;2131193;27;20600;-47
2022/05/17 05:58:05;;;;;;;2.60;0.75;;;;;;;;;;2131117;27;20143;-46
2022/05/17 05:59:06;;;;;;;1.73;0.88;;;;;;;;;;2130983;27;20119;-46
2022/05/17 06:00:08;;;;;;;4.53;1.25;;;;;;;;;;2131138;27;20121;-47
2022/05/17 06:01:09;;;;;;;;;;;;;;;;;;2131198;27;20052;-47
2022/05/17 06:02:11;;;;;;;1.35;0.80;;;;;;;;;;2131198;27;19927;-46
2022/05/17 06:03:12;;;;;;;1.10;0.80;;;;;;;;;;2131116;27;20050;-49
2022/05/17 06:04:13;;;;;;;1.27;0.90;;;;;;;;;;2131050;27;20479;-46
2022/05/17 06:05:14;;;;;;;2.70;0.77;;;;;;;;;;2131014;27;20091;-48
2022/05/17 06:06:16;;;;;;;2.85;0.90;;;;;;;;;;2130986;27;20126;-47
2022/05/17 06:07:17;;;;;;;4.32;1.25;;;;;;;;;;2130998;27;20444;-47
2022/05/17 06:08:18;;;;;;;2.07;0.90;;;;;;;;;;2131016;27;20091;-46
2022/05/17 06:09:19;;;;;;;3.45;0.77;;;;;;;;;;2131002;27;20282;-46
2022/05/17 06:10:21;;;;;;;2.50;0.80;;;;;;;;;;2130925;27;20491;-46
2022/05/17 06:11:22;;;;;;;2.88;1.15;;;;;;;;;;2131096;27;20039;-47
2022/05/17 06:12:24;;;;;;;1.93;1.10;;;;;;;;;;2131007;27;20488;-46
2022/05/17 06:13:25;;;;;;;3.50;0.80;;;;;;;;;;2131006;27;20179;-60